New River MCAS /H/ /Mccutcheon Fld/ Airport
KNCA : now visible

Airfield :











YOU CAN JOIN US ON...

 
LOGIN :

Register | Disclaimer

   EN    FR    IT 

 









Legend :    VFR   Marginal VFR   IFR   Intensive IFR   Very Intensive IFR
Visi :
Ceiling :
>= 8 km
>= 3000ft
5 to 8 km
1000 to 3000 ft
1500m to 5 km
500 to 1000 ft
800 to 1500m
200 to 500 ft
< 800m
< 200 ft
Symbols :   Thunderstorms  Fog  Heavy snow  Heavy precipitations  Wind > 20 kt






- Airport Elevation : 26 ft


KNCA - New River MCAS /H/ /Mccutcheon Fld/

CURRENT METAR :
  • 171856Z 08005KT 10SM BKN060 OVC080 24/11 A3023 RMK AO2 SLP239 T02440106

EXPIRED METARs :
  • 171756Z VRB04KT 7SM BKN080 25/11 A3025 RMK AO2 SLP244 T02500106 10250 20150 58014
  • 171656Z 00000KT 10SM FEW075 SCT180 24/10 A3026 RMK AO2 SLP250 T02440100

TAF TAF KNCA
Valid from the 17 at 15:00 until the 18 at 15:00 UTC


1715/1815 VRB06KT 9999 BKN080 BKN090 QNH3020INS
TEMPO 1717/1722 05010G18KT
BECMG 1805/1807 06008KT 9999 BKN080 QNH3023INS T24/1716Z T14/1804Z
KZDC FIR / North America



MET'MAP, your aeronautical weather chart ! - Copyright ORBIFLY December 2007 - Disclaimer

ORBIFLY MET'MAP TEAM :

Programming & Development : Alexandra Zaïnal
Concept & original design : Baudouin d'Aumeries
Assistance for programming : Marc-Olivier Méhu
Technical & hardware support : Manuel Goepfert

Contact : metmap@orbifly.com




SOURCES & CREDITS :

   NOAA       Earth
Advisory